Time;durP1;ratioP1;P1;durP2;ratioP2;P2;SDS_P1;SDS_P2;PMS_P1;PMS_P2;Temp;Humidity;BMP_temperature;BMP_pressure;BME280_temperature;BME280_humidity;BME280_pressure;Samples;Min_cycle;Max_cycle;Signal;HPM_P1;HPM_P2
2021/08/21 00:00:23;;;;;;;8.33;7.50;;;;;;;15.27;100.00;101179.91;5032154;28;20688;-75
2021/08/21 00:02:51;;;;;;;8.90;8.00;;;;;;;15.48;100.00;101176.69;5030987;28;20203;-75
2021/08/21 00:05:19;;;;;;;8.53;7.73;;;;;;;15.36;100.00;101191.06;5035643;28;20183;-75
2021/08/21 00:07:47;;;;;;;9.70;8.10;;;;;;;15.32;100.00;101181.81;5085521;28;20676;-74
2021/08/21 00:10:13;;;;;;;8.88;7.93;;;;;;;15.37;100.00;101182.56;5054875;28;20215;-77
2021/08/21 00:12:38;;;;;;;7.77;6.97;;;;;;;15.40;100.00;101181.97;5043309;28;20211;-74
2021/08/21 00:15:08;;;;;;;7.65;6.72;;;;;;;15.28;100.00;101183.50;5032637;28;20198;-76
2021/08/21 00:17:33;;;;;;;7.95;7.25;;;;;;;15.35;100.00;101176.56;5025263;28;20231;-75
2021/08/21 00:20:01;;;;;;;6.60;6.10;;;;;;;15.29;100.00;101185.13;5049025;28;20267;-74
2021/08/21 00:22:32;;;;;;;5.78;5.32;;;;;;;15.24;100.00;101177.78;5031693;28;20836;-74
2021/08/21 00:24:57;;;;;;;7.78;5.80;;;;;;;15.08;100.00;101192.69;5015699;28;20194;-75
2021/08/21 00:27:27;;;;;;;7.27;5.83;;;;;;;15.05;100.00;101190.53;5030512;28;20216;-75
2021/08/21 00:29:55;;;;;;;6.87;6.27;;;;;;;15.15;100.00;101182.25;5032422;28;20183;-76
2021/08/21 00:32:21;;;;;;;6.80;6.20;;;;;;;15.12;100.00;101195.66;5015166;28;20729;-76
2021/08/21 00:34:49;;;;;;;6.90;6.07;;;;;;;15.14;100.00;101182.53;4999743;28;20204;-75
2021/08/21 00:37:17;;;;;;;7.50;6.50;;;;;;;15.12;100.00;101185.53;5049022;28;20216;-75
2021/08/21 00:39:43;;;;;;;6.77;6.17;;;;;;;15.11;100.00;101183.91;5069489;28;20634;-75
2021/08/21 00:42:11;;;;;;;6.40;5.80;;;;;;;15.13;100.00;101181.72;5021193;28;20233;-77
2021/08/21 00:44:38;;;;;;;10.27;6.30;;;;;;;15.10;100.00;101170.50;5027016;28;20552;-76
2021/08/21 00:47:14;;;;;;;6.23;5.63;;;;;;;15.02;100.00;101180.16;5012638;28;20215;-76
2021/08/21 00:49:52;;;;;;;8.43;6.17;;;;;;;14.95;100.00;101178.06;5020626;28;20184;-76
2021/08/21 00:52:26;;;;;;;7.73;7.03;;;;;;;14.86;100.00;101186.06;5019087;28;20230;-77
2021/08/21 00:54:51;;;;;;;7.60;6.90;;;;;;;14.76;100.00;101185.31;5019892;28;20215;-76
2021/08/21 00:57:20;;;;;;;8.13;7.40;;;;;;;14.77;100.00;101174.09;5001112;28;20219;-76
2021/08/21 00:59:47;;;;;;;8.40;6.77;;;;;;;14.77;100.00;101193.25;5018911;28;20543;-76
2021/08/21 01:02:15;;;;;;;8.57;7.63;;;;;;;14.89;100.00;101187.41;5001462;28;20245;-76
2021/08/21 01:04:52;;;;;;;6.63;6.13;;;;;;;14.87;100.00;101190.44;5051366;28;20211;-76
2021/08/21 01:07:30;;;;;;;7.00;6.40;;;;;;;14.89;100.00;101179.19;5031008;28;20227;-75
2021/08/21 01:10:08;;;;;;;7.30;6.70;;;;;;;15.08;100.00;101189.94;5017054;28;20270;-75
2021/08/21 01:12:38;;;;;;;8.10;7.40;;;;;;;15.02;100.00;101184.81;5030779;28;20227;-76
2021/08/21 01:15:05;;;;;;;6.80;6.30;;;;;;;15.00;100.00;101182.38;5023074;28;20200;-76
2021/08/21 01:17:32;;;;;;;6.80;6.20;;;;;;;14.99;100.00;101179.91;5029533;28;20224;-76
2021/08/21 01:19:58;;;;;;;6.83;6.33;;;;;;;15.12;100.00;101179.25;5031162;28;20184;-76
2021/08/21 01:22:29;;;;;;;6.30;5.80;;;;;;;15.14;100.00;101177.88;5014357;28;20216;-76
2021/08/21 01:25:14;;;;;;;6.87;6.37;;;;;;;15.12;100.00;101173.78;5044368;28;20184;-75
2021/08/21 01:27:40;;;;;;;7.43;6.83;;;;;;;15.12;100.00;101173.78;5014126;28;20219;-75
2021/08/21 01:30:25;;;;;;;7.30;6.70;;;;;;;15.04;100.00;101177.94;5033828;28;20591;-76
2021/08/21 01:32:57;;;;;;;7.80;7.10;;;;;;;14.96;100.00;101180.47;5018519;28;20302;-76
2021/08/21 01:35:26;;;;;;;7.00;6.50;;;;;;;15.01;100.00;101183.19;5051250;28;20221;-75
2021/08/21 01:37:57;;;;;;;7.37;6.83;;;;;;;14.86;100.00;101190.72;5066897;28;20175;-75
2021/08/21 01:40:35;;;;;;;7.10;6.50;;;;;;;14.89;100.00;101179.19;5034194;28;20246;-76
2021/08/21 01:43:15;;;;;;;7.77;7.17;;;;;;;14.86;100.00;101179.78;5048406;28;20783;-76
2021/08/21 01:45:47;;;;;;;7.70;7.10;;;;;;;14.91;100.00;101176.97;5061519;28;20246;-75
2021/08/21 01:48:13;;;;;;;8.73;8.03;;;;;;;14.94;100.00;101173.69;5029934;28;20208;-75
2021/08/21 01:50:39;;;;;;;8.73;8.03;;;;;;;14.96;100.00;101179.69;5030607;28;20212;-75
2021/08/21 01:53:15;;;;;;;9.00;8.20;;;;;;;14.99;100.00;101179.09;5053368;28;20223;-76
2021/08/21 01:55:43;;;;;;;6.97;6.47;;;;;;;14.93;100.00;101181.06;5038132;28;20223;-76
2021/08/21 01:58:19;;;;;;;7.17;6.57;;;;;;;15.00;100.00;101176.91;5021663;28;20201;-76
2021/08/21 02:01:10;;;;;;;7.17;6.57;;;;;;;14.85;100.00;101173.50;5023136;28;20223;-76
2021/08/21 02:03:55;;;;;;;7.60;6.40;;;;;;;14.70;100.00;101175.53;5027272;28;20207;-75
2021/08/21 02:06:25;;;;;;;7.40;6.80;;;;;;;14.84;100.00;101187.47;5021155;28;20280;-76
2021/08/21 02:08:54;;;;;;;8.47;7.67;;;;;;;14.71;100.00;101188.13;5034588;28;20220;-77
2021/08/21 02:11:19;;;;;;;8.13;7.37;;;;;;;14.61;100.00;101193.66;5017599;28;20224;-76
2021/08/21 02:13:45;;;;;;;7.77;6.97;;;;;;;14.76;100.00;101182.59;5020768;28;20211;-76
2021/08/21 02:16:13;;;;;;;7.40;6.70;;;;;;;14.79;100.00;101185.56;5048233;28;20215;-77
2021/08/21 02:18:39;;;;;;;6.77;6.20;;;;;;;14.63;100.00;101186.81;5054525;28;20589;-76
2021/08/21 02:21:19;;;;;;;7.20;6.50;;;;;;;14.70;100.00;101192.75;5024471;28;20219;-76
2021/08/21 02:23:45;;;;;;;7.93;7.23;;;;;;;14.63;100.00;101194.19;5037358;28;20196;-75
2021/08/21 02:26:12;;;;;;;7.73;6.93;;;;;;;14.47;100.00;101198.16;5037476;28;20272;-76
2021/08/21 02:28:45;;;;;;;8.80;7.03;;;;;;;14.37;100.00;101187.25;5038809;28;20176;-76
2021/08/21 02:31:13;;;;;;;7.67;6.43;;;;;;;14.30;100.00;101185.94;5020821;28;20303;-76
2021/08/21 02:33:41;;;;;;;9.43;6.47;;;;;;;14.23;100.00;101185.47;5020827;28;20220;-76
2021/08/21 02:36:12;;;;;;;7.77;6.97;;;;;;;14.35;100.00;101184.00;5021174;28;20767;-76
2021/08/21 02:38:42;;;;;;;9.67;6.93;;;;;;;14.29;100.00;101190.63;5037896;28;20179;-76
2021/08/21 02:41:10;;;;;;;8.33;6.70;;;;;;;14.35;100.00;101189.47;5020942;28;20712;-76
2021/08/21 02:43:36;;;;;;;9.27;6.63;;;;;;;14.38;100.00;101182.63;5020307;28;20251;-75
2021/08/21 02:46:04;;;;;;;6.77;6.07;;;;;;;14.46;100.00;101191.03;5047285;28;20289;-76
2021/08/21 02:48:29;;;;;;;6.50;6.00;;;;;;;14.40;100.00;101181.25;5053037;28;20627;-76
2021/08/21 02:50:55;;;;;;;6.30;5.80;;;;;;;14.35;100.00;101194.94;5020284;28;20215;-77
2021/08/21 02:53:21;;;;;;;6.50;6.00;;;;;;;14.23;100.00;101191.75;5020661;28;20273;-76
2021/08/21 02:55:49;;;;;;;6.20;5.70;;;;;;;14.20;100.00;101191.50;5036464;28;20281;-76
2021/08/21 02:58:18;;;;;;;6.23;5.63;;;;;;;14.44;100.00;101193.25;5020962;28;20664;-76
2021/08/21 03:00:44;;;;;;;6.67;6.07;;;;;;;14.38;100.00;101194.38;5020191;28;20211;-76
2021/08/21 03:03:12;;;;;;;7.33;6.73;;;;;;;14.44;100.00;101198.72;5020101;28;20233;-76
2021/08/21 03:05:41;;;;;;;7.53;6.63;;;;;;;14.47;100.00;101203.63;5049245;28;20227;-77
2021/08/21 03:08:12;;;;;;;7.30;6.63;;;;;;;14.51;100.00;101201.13;5032697;28;20173;-76
2021/08/21 03:10:44;;;;;;;8.47;7.10;;;;;;;14.42;100.00;101205.56;5038562;28;20352;-77
2021/08/21 03:13:15;;;;;;;9.03;6.50;;;;;;;14.58;100.00;101207.91;5020988;28;20764;-77
2021/08/21 03:15:41;;;;;;;7.17;6.57;;;;;;;14.53;100.00;101209.88;5050737;28;20218;-77
2021/08/21 03:18:06;;;;;;;6.93;6.27;;;;;;;14.55;100.00;101211.19;5052926;28;20259;-76
2021/08/21 03:20:35;;;;;;;7.30;6.43;;;;;;;14.57;100.00;101209.00;5052429;28;20242;-76
2021/08/21 03:23:03;;;;;;;6.83;5.87;;;;;;;14.66;100.00;101212.75;5036389;28;20287;-75
2021/08/21 03:25:34;;;;;;;6.40;5.70;;;;;;;14.63;100.00;101199.66;5016307;28;20216;-76
2021/08/21 03:28:00;;;;;;;6.77;5.30;;;;;;;14.72;100.00;101206.16;5016577;28;20184;-76
2021/08/21 03:30:26;;;;;;;6.27;5.70;;;;;;;14.67;100.00;101208.94;5019090;28;20215;-75
2021/08/21 03:33:10;;;;;;;6.50;5.90;;;;;;;14.63;100.00;101205.13;5021538;28;20224;-76
2021/08/21 03:35:40;;;;;;;7.10;6.43;;;;;;;14.74;100.00;101212.16;5035368;28;20568;-76
2021/08/21 03:38:09;;;;;;;6.57;5.97;;;;;;;14.73;100.00;101214.06;5005174;28;20241;-75
2021/08/21 03:40:45;;;;;;;8.03;6.83;;;;;;;14.63;100.00;101218.78;5020549;28;20211;-75
2021/08/21 03:43:15;;;;;;;7.40;6.70;;;;;;;14.70;100.00;101213.81;5020141;28;20222;-76
2021/08/21 03:45:41;;;;;;;7.30;6.43;;;;;;;14.70;100.00;101208.34;5043338;28;20220;-76
2021/08/21 03:48:11;;;;;;;7.80;7.00;;;;;;;14.76;100.00;101208.03;5003962;28;20176;-77
2021/08/21 03:50:39;;;;;;;7.53;6.83;;;;;;;14.79;100.00;101198.44;5052461;28;20711;-76
2021/08/21 03:53:05;;;;;;;8.90;6.97;;;;;;;14.68;100.00;101205.09;5020060;28;20558;-76
2021/08/21 03:55:40;;;;;;;7.50;6.70;;;;;;;14.66;100.00;101213.56;5043828;28;20223;-76
2021/08/21 03:58:06;;;;;;;6.60;5.93;;;;;;;14.62;100.00;101214.44;5032395;28;20185;-77
2021/08/21 04:00:31;;;;;;;6.87;6.10;;;;;;;14.74;100.00;101204.78;5034739;28;20658;-76
2021/08/21 04:03:08;;;;;;;7.63;6.53;;;;;;;14.86;100.00;101207.13;5035739;28;20183;-76
2021/08/21 04:05:40;;;;;;;7.13;6.43;;;;;;;14.85;100.00;101210.97;5016024;28;20224;-76
2021/08/21 04:08:06;;;;;;;6.80;6.20;;;;;;;14.90;100.00;101199.97;5015539;28;20197;-76
2021/08/21 04:10:34;;;;;;;8.07;6.80;;;;;;;14.78;100.00;101199.53;5018753;28;20219;-77
2021/08/21 04:13:00;;;;;;;8.10;6.60;;;;;;;14.61;100.00;101214.72;5019518;28;20251;-76
2021/08/21 04:15:26;;;;;;;8.67;7.13;;;;;;;14.73;100.00;101207.78;5059590;28;20292;-76
2021/08/21 04:17:55;;;;;;;7.27;6.63;;;;;;;14.72;100.00;101198.78;5019858;28;20206;-76
2021/08/21 04:20:23;;;;;;;8.83;6.43;;;;;;;14.66;100.00;101205.38;5035482;28;20227;-76
2021/08/21 04:22:49;;;;;;;7.00;6.30;;;;;;;14.74;100.00;101206.66;5019014;28;20203;-77
2021/08/21 04:25:14;;;;;;;8.17;6.50;;;;;;;14.74;100.00;101199.31;5051541;28;20176;-76
2021/08/21 04:27:43;;;;;;;8.83;6.80;;;;;;;14.90;100.00;101197.25;5068062;28;20708;-76
2021/08/21 04:30:09;;;;;;;7.77;6.97;;;;;;;14.95;100.00;101194.47;5034740;28;20192;-76
2021/08/21 04:32:35;;;;;;;7.27;6.57;;;;;;;14.95;100.00;101202.69;5034888;28;20234;-78
2021/08/21 04:35:01;;;;;;;7.63;6.83;;;;;;;14.98;100.00;101196.63;5035043;28;20187;-76
2021/08/21 04:37:32;;;;;;;7.43;6.73;;;;;;;15.02;100.00;101201.25;5031456;28;20665;-76
2021/08/21 04:39:58;;;;;;;8.97;6.90;;;;;;;14.91;100.00;101205.16;5031099;28;20180;-76
2021/08/21 04:42:26;;;;;;;9.73;6.93;;;;;;;14.97;100.00;101204.00;5018242;28;20227;-77
2021/08/21 04:44:59;;;;;;;7.77;6.53;;;;;;;14.96;100.00;101201.56;5030586;28;20217;-77
2021/08/21 04:47:29;;;;;;;9.00;6.97;;;;;;;14.89;100.00;101199.19;5021686;28;20222;-76
2021/08/21 04:49:57;;;;;;;9.07;7.60;;;;;;;14.99;100.00;101209.22;5002431;28;20184;-77
2021/08/21 04:52:25;;;;;;;7.93;7.03;;;;;;;14.94;100.00;101206.50;5014451;28;20242;-77
2021/08/21 04:54:58;;;;;;;14.07;8.17;;;;;;;15.07;100.00;101210.22;5015256;28;20199;-77
2021/08/21 04:57:27;;;;;;;10.63;7.43;;;;;;;15.09;100.00;101202.53;5051263;28;20647;-77
2021/08/21 04:59:52;;;;;;;8.70;7.23;;;;;;;15.06;100.00;101213.25;5034963;28;20184;-77
2021/08/21 05:02:20;;;;;;;8.10;7.23;;;;;;;14.97;100.00;101214.16;5051124;28;20238;-78
2021/08/21 05:04:48;;;;;;;7.57;6.97;;;;;;;15.08;100.00;101217.31;5018992;28;20226;-77
2021/08/21 05:07:15;;;;;;;8.17;6.97;;;;;;;15.22;100.00;101215.56;5030549;28;20254;-76
2021/08/21 05:09:45;;;;;;;7.97;6.20;;;;;;;15.23;100.00;101214.47;5018082;28;20203;-78
2021/08/21 05:12:18;;;;;;;7.60;6.00;;;;;;;15.40;100.00;101214.81;5038345;28;20224;-77
2021/08/21 05:14:55;;;;;;;8.23;6.53;;;;;;;15.52;100.00;101218.81;5078779;28;20241;-78
2021/08/21 05:17:22;;;;;;;8.87;7.23;;;;;;;15.65;100.00;101223.59;5042102;28;20776;-78
2021/08/21 05:20:05;;;;;;;8.60;7.30;;;;;;;15.73;100.00;101228.41;5036343;28;20172;-78
2021/08/21 05:25:13;;;;;;;8.57;7.17;;;;;;;15.95;100.00;101232.28;5014029;28;20187;-77
2021/08/21 05:27:41;;;;;;;8.07;6.90;;;;;;;15.98;100.00;101228.91;5041428;28;20191;-77
2021/08/21 05:30:07;;;;;;;9.07;6.63;;;;;;;16.12;100.00;101223.56;5034017;28;20184;-77
2021/08/21 05:32:35;;;;;;;9.45;6.75;;;;;;;16.23;100.00;101225.91;5028542;28;20211;-77
2021/08/21 05:35:01;;;;;;;8.38;6.75;;;;;;;16.38;100.00;101228.41;5034318;28;20214;-79
2021/08/21 05:37:29;;;;;;;7.57;6.88;;;;;;;16.45;100.00;101229.69;5050275;28;20239;-77
2021/08/21 05:39:58;;;;;;;9.83;7.37;;;;;;;16.52;100.00;101229.28;5050114;28;20186;-78
2021/08/21 05:42:23;;;;;;;8.23;7.30;;;;;;;16.56;100.00;101241.31;5029821;28;20224;-77
2021/08/21 05:44:50;;;;;;;10.93;7.45;;;;;;;16.52;100.00;101234.78;5070751;28;20257;-77
2021/08/21 05:47:15;;;;;;;9.75;7.15;;;;;;;16.38;100.00;101242.13;5040299;28;20219;-77
2021/08/21 05:49:41;;;;;;;8.40;7.37;;;;;;;16.36;100.00;101244.34;5017060;28;20194;-77
2021/08/21 05:52:09;;;;;;;8.73;6.70;;;;;;;16.36;100.00;101241.63;5050033;28;20211;-77
2021/08/21 05:54:34;;;;;;;7.07;6.37;;;;;;;16.46;100.00;101239.53;5033556;28;20803;-78
2021/08/21 05:57:07;;;;;;;7.40;6.35;;;;;;;16.64;100.00;101238.72;5018795;28;20216;-78
2021/08/21 05:59:33;;;;;;;7.40;6.63;;;;;;;16.78;100.00;101240.41;5049664;28;20188;-77
2021/08/21 06:01:59;;;;;;;7.22;6.28;;;;;;;16.90;100.00;101243.50;5016303;28;20219;-77
2021/08/21 06:04:27;;;;;;;6.28;5.68;;;;;;;16.98;100.00;101246.38;5017305;28;20670;-78
2021/08/21 06:06:57;;;;;;;6.93;5.30;;;;;;;17.09;100.00;101252.53;5016738;28;20306;-78
2021/08/21 06:09:25;;;;;;;6.53;4.50;;;;;;;17.15;100.00;101245.84;5017335;28;20714;-78
2021/08/21 06:11:51;;;;;;;5.68;3.85;;;;;;;17.23;100.00;101248.72;5017292;28;20692;-78
2021/08/21 06:14:16;;;;;;;5.47;4.00;;;;;;;17.26;100.00;101247.31;5021115;28;20215;-77
2021/08/21 06:16:44;;;;;;;7.10;3.90;;;;;;;17.38;100.00;101246.53;5050207;28;20215;-77
2021/08/21 06:19:10;;;;;;;3.83;3.53;;;;;;;17.35;100.00;101251.81;5021521;28;20187;-77
2021/08/21 06:21:38;;;;;;;5.88;3.85;;;;;;;17.26;100.00;101255.56;5051454;28;20231;-77
2021/08/21 06:24:04;;;;;;;4.72;3.35;;;;;;;17.33;100.00;101249.38;5014520;28;20238;-78
2021/08/21 06:26:32;;;;;;;4.93;4.00;;;;;;;17.31;100.00;101255.44;5030209;28;20228;-77
2021/08/21 06:29:03;;;;;;;3.80;3.50;;;;;;;17.28;100.00;101256.88;5043759;28;20183;-77
2021/08/21 06:31:29;;;;;;;4.28;3.60;;;;;;;17.33;100.00;101250.50;5016996;28;20229;-78
2021/08/21 06:33:57;;;;;;;3.88;3.42;;;;;;;17.30;100.00;101254.63;5014003;28;20212;-77
2021/08/21 06:36:22;;;;;;;4.50;3.67;;;;;;;17.33;100.00;101264.22;5046731;28;20220;-77
2021/08/21 06:38:48;;;;;;;4.93;3.25;;;;;;;17.27;100.00;101255.25;5020761;28;20236;-78
2021/08/21 06:41:14;;;;;;;4.00;3.50;;;;;;;17.25;100.00;101262.16;5037064;28;20218;-77
2021/08/21 06:43:40;;;;;;;4.43;3.35;;;;;;;17.28;100.00;101254.13;5039262;28;20249;-77
2021/08/21 06:46:12;;;;;;;4.35;3.53;;;;;;;17.38;100.00;101252.03;5056919;28;20261;-77
2021/08/21 06:48:40;;;;;;;4.38;3.55;;;;;;;17.45;100.00;101252.44;5032483;28;20187;-77
2021/08/21 06:51:08;;;;;;;5.90;3.40;;;;;;;17.36;100.00;101248.78;5035130;28;20230;-77
2021/08/21 06:53:36;;;;;;;5.13;3.40;;;;;;;17.53;100.00;101251.75;5056619;28;20242;-77
2021/08/21 06:56:05;;;;;;;3.85;3.42;;;;;;;17.69;100.00;101253.09;5039464;28;20243;-78
2021/08/21 06:58:33;;;;;;;5.57;3.30;;;;;;;17.80;100.00;101260.00;5033767;28;20176;-77
2021/08/21 07:01:01;;;;;;;3.67;3.38;;;;;;;17.75;100.00;101258.19;5049993;28;20216;-77
2021/08/21 07:03:26;;;;;;;5.10;3.90;;;;;;;17.78;100.00;101249.34;5020465;28;20207;-77
2021/08/21 07:05:54;;;;;;;4.00;3.33;;;;;;;17.97;100.00;101251.97;5052434;28;20281;-77
2021/08/21 07:08:20;;;;;;;5.25;3.45;;;;;;;17.91;100.00;101253.19;5036439;28;20187;-77
2021/08/21 07:10:48;;;;;;;3.85;3.45;;;;;;;18.04;100.00;101250.44;5019399;28;20589;-76
2021/08/21 07:13:16;;;;;;;4.15;3.00;;;;;;;18.25;100.00;101244.22;5038100;28;20276;-77
2021/08/21 07:15:41;;;;;;;3.10;2.80;;;;;;;18.34;100.00;101245.13;5060552;28;20223;-77
2021/08/21 07:18:07;;;;;;;4.03;2.70;;;;;;;18.47;100.00;101257.25;5036252;28;20211;-77
2021/08/21 07:20:33;;;;;;;4.65;3.13;;;;;;;18.73;100.00;101259.09;5069991;28;20227;-78
2021/08/21 07:23:01;;;;;;;5.43;2.65;;;;;;;18.49;100.00;101261.28;5037034;28;20203;-77
2021/08/21 07:25:29;;;;;;;2.90;2.30;;;;;;;18.77;100.00;101262.84;5036028;28;20701;-76
2021/08/21 07:27:57;;;;;;;3.10;2.25;;;;;;;18.69;100.00;101263.59;5020172;28;20673;-77
2021/08/21 07:30:24;;;;;;;3.05;2.63;;;;;;;18.61;100.00;101265.16;5017189;28;20740;-77
2021/08/21 07:32:53;;;;;;;3.72;2.30;;;;;;;18.60;100.00;101266.25;5068304;28;20207;-77
2021/08/21 07:35:18;;;;;;;2.60;2.30;;;;;;;18.60;100.00;101265.44;5052394;28;20692;-78
2021/08/21 07:37:46;;;;;;;2.50;2.30;;;;;;;18.83;100.00;101265.19;5043961;28;20664;-76
2021/08/21 07:40:15;;;;;;;2.25;1.90;;;;;;;18.81;100.00;101269.34;5031738;28;20250;-77
2021/08/21 07:42:40;;;;;;;2.25;1.95;;;;;;;18.89;100.00;101273.00;5033985;28;20181;-77
2021/08/21 07:45:08;;;;;;;2.92;2.08;;;;;;;18.99;100.00;101270.03;5026656;28;20653;-76
2021/08/21 07:47:34;;;;;;;3.55;1.98;;;;;;;19.17;100.00;101271.78;5005079;28;20215;-77
2021/08/21 07:50:00;;;;;;;2.30;1.92;;;;;;;19.12;100.00;101276.59;5018796;28;20183;-75
2021/08/21 07:52:27;;;;;;;2.80;1.80;;;;;;;19.45;100.00;101270.50;5035841;28;20221;-77
2021/08/21 07:54:56;;;;;;;2.33;1.98;;;;;;;19.57;100.00;101268.00;5020525;28;20282;-77
2021/08/21 07:57:24;;;;;;;2.90;1.77;;;;;;;19.47;100.00;101277.34;5015445;28;20248;-77
2021/08/21 07:59:50;;;;;;;3.55;1.75;;;;;;;19.32;100.00;101276.91;5012558;28;20189;-77
2021/08/21 08:02:17;;;;;;;2.65;1.70;;;;;;;19.53;100.00;101272.50;4979286;28;20232;-76
2021/08/21 08:04:43;;;;;;;2.13;1.80;;;;;;;19.63;100.00;101274.97;5000284;28;20210;-76
2021/08/21 08:07:08;;;;;;;2.55;1.48;;;;;;;19.80;100.00;101275.91;5018309;28;20220;-80
2021/08/21 08:09:37;;;;;;;1.65;1.55;;;;;;;20.06;100.00;101285.94;5016911;28;20183;-76
2021/08/21 08:12:06;;;;;;;2.35;1.70;;;;;;;20.11;100.00;101275.56;5032322;28;20231;-76
2021/08/21 08:14:33;;;;;;;1.92;1.70;;;;;;;20.16;100.00;101277.34;5007198;28;20330;-77
2021/08/21 08:17:01;;;;;;;2.72;1.75;;;;;;;20.26;100.00;101274.31;5032816;28;20672;-78
2021/08/21 08:19:27;;;;;;;2.55;1.40;;;;;;;20.17;100.00;101273.47;5000098;28;20562;-76
2021/08/21 08:21:52;;;;;;;1.88;1.60;;;;;;;20.32;100.00;101273.81;4999368;28;20223;-76
2021/08/21 08:24:19;;;;;;;2.75;1.70;;;;;;;20.43;100.00;101277.91;4986518;28;20199;-76
2021/08/21 08:26:47;;;;;;;2.22;1.60;;;;;;;20.23;100.00;101275.75;5018616;28;20220;-78
2021/08/21 08:29:15;;;;;;;1.98;1.40;;;;;;;20.57;100.00;101270.31;5031162;28;20212;-78
2021/08/21 08:31:41;;;;;;;2.47;1.50;;;;;;;20.69;100.00;101276.84;5031351;28;20227;-78
2021/08/21 08:34:06;;;;;;;3.38;1.60;;;;;;;20.80;100.00;101275.38;5015010;28;20227;-78
2021/08/21 08:36:34;;;;;;;2.92;1.50;;;;;;;20.90;100.00;101277.84;5049942;28;20224;-77
2021/08/21 08:39:02;;;;;;;4.28;1.55;;;;;;;21.07;100.00;101275.06;5051024;28;20565;-78
2021/08/21 08:41:27;;;;;;;1.30;1.20;;;;;;;21.17;100.00;101277.47;5013303;28;20228;-77
2021/08/21 08:43:53;;;;;;;2.28;1.38;;;;;;;21.30;100.00;101286.44;4992571;28;20214;-77
2021/08/21 08:46:21;;;;;;;1.85;1.50;;;;;;;21.17;100.00;101285.78;5009460;28;20231;-76
2021/08/21 08:48:47;;;;;;;1.67;1.35;;;;;;;20.88;100.00;101296.69;5016373;28;20283;-77
2021/08/21 08:51:13;;;;;;;1.75;1.30;;;;;;;21.13;100.00;101287.56;5015759;28;20243;-79
2021/08/21 08:53:38;;;;;;;2.67;1.40;;;;;;;21.33;100.00;101296.81;4999428;28;20680;-78
2021/08/21 08:56:08;;;;;;;2.60;1.40;;;;;;;21.51;100.00;101298.44;4995605;28;20224;-78
2021/08/21 08:58:37;;;;;;;4.03;1.65;;;;;;;21.73;100.00;101289.94;4996161;28;20185;-79
2021/08/21 09:01:05;;;;;;;2.60;1.55;;;;;;;21.84;100.00;101291.19;5006079;28;20232;-77
2021/08/21 09:03:32;;;;;;;1.40;1.30;;;;;;;21.69;100.00;101287.00;4983339;28;20804;-77
2021/08/21 09:06:01;;;;;;;1.83;1.73;;;;;;;21.90;100.00;101289.88;4999477;28;20231;-78
2021/08/21 09:08:27;;;;;;;2.25;1.60;;;;;;;21.70;100.00;101288.66;4998841;28;20185;-76
2021/08/21 09:10:57;;;;;;;1.73;1.50;;;;;;;22.24;100.00;101285.84;5031654;28;20657;-76
2021/08/21 09:13:23;;;;;;;2.72;1.60;;;;;;;22.27;100.00;101290.72;5013041;28;20221;-78
2021/08/21 09:15:54;;;;;;;1.77;1.48;;;;;;;22.58;100.00;101296.69;5022833;28;20220;-78
2021/08/21 09:18:29;;;;;;;3.13;1.90;;;;;;;22.42;100.00;101290.13;4997998;28;20192;-77
2021/08/21 09:21:02;;;;;;;2.70;2.50;;;;;;;22.38;100.00;101291.13;5032099;28;20227;-77
2021/08/21 09:23:37;;;;;;;3.17;1.92;;;;;;;22.47;100.00;101299.06;5030788;28;20283;-77
2021/08/21 09:26:13;;;;;;;2.22;1.85;;;;;;;22.25;100.00;101290.25;4984511;28;20584;-76
2021/08/21 09:28:48;;;;;;;2.30;1.77;;;;;;;22.50;100.00;101300.34;5031918;28;20831;-77
2021/08/21 09:31:20;;;;;;;2.53;1.70;;;;;;;22.45;100.00;101295.00;5011370;28;20247;-78
2021/08/21 09:34:06;;;;;;;2.92;2.22;;;;;;;22.48;100.00;101286.03;4995648;28;20208;-78
2021/08/21 09:36:41;;;;;;;3.60;2.50;;;;;;;22.48;100.00;101289.59;4988594;28;20220;-77
2021/08/21 09:39:14;;;;;;;2.67;2.40;;;;;;;22.72;99.16;101291.72;5014514;28;20180;-77
2021/08/21 09:41:59;;;;;;;2.40;2.20;;;;;;;22.92;99.64;101287.03;4998439;28;20220;-77
2021/08/21 09:44:31;;;;;;;2.92;2.40;;;;;;;22.76;97.64;101284.38;5006868;28;20306;-78
2021/08/21 09:47:29;;;;;;;2.95;2.70;;;;;;;22.59;99.67;101281.72;5026184;28;20266;-78
2021/08/21 09:50:14;;;;;;;4.30;2.72;;;;;;;22.64;100.00;101287.06;5005380;28;20219;-78
2021/08/21 09:52:43;;;;;;;5.18;4.10;;;;;;;22.40;96.54;101284.13;4999783;28;20240;-79
2021/08/21 09:55:16;;;;;;;3.33;3.03;;;;;;;22.99;94.29;101281.75;4995740;28;20177;-78
2021/08/21 09:57:42;;;;;;;3.92;3.15;;;;;;;23.18;94.32;101282.06;5019050;28;20250;-77
2021/08/21 10:00:11;;;;;;;5.93;4.50;;;;;;;23.31;93.66;101280.97;5034925;28;20267;-78
2021/08/21 10:02:42;;;;;;;4.43;2.90;;;;;;;23.00;93.97;101280.63;5034251;28;20212;-77
2021/08/21 10:05:08;;;;;;;4.97;3.03;;;;;;;22.67;98.92;101276.09;5014792;28;20184;-78
2021/08/21 10:07:42;;;;;;;4.15;3.60;;;;;;;22.79;97.99;101270.66;5034441;28;20241;-74
2021/08/21 10:10:11;;;;;;;4.18;3.35;;;;;;;23.28;94.05;101270.56;5020313;28;20215;-78
2021/08/21 10:12:39;;;;;;;3.38;2.92;;;;;;;23.31;96.25;101267.09;5021678;28;20215;-76
2021/08/21 10:15:06;;;;;;;2.97;2.45;;;;;;;23.62;94.62;101268.25;5004533;28;20183;-76
2021/08/21 10:17:31;;;;;;;3.42;3.00;;;;;;;22.81;97.41;101260.84;5038256;28;20234;-77
2021/08/21 10:20:02;;;;;;;6.30;3.20;;;;;;;22.59;99.42;101265.09;5038748;28;20192;-81
2021/08/21 10:22:32;;;;;;;3.10;2.78;;;;;;;22.81;100.00;101269.16;5035428;28;20235;-77
2021/08/21 10:25:07;;;;;;;3.70;3.40;;;;;;;22.78;97.85;101269.00;5034510;28;20222;-77
2021/08/21 10:27:38;;;;;;;2.97;2.65;;;;;;;23.01;98.83;101273.91;5005454;28;20251;-77
2021/08/21 10:30:17;;;;;;;4.50;2.85;;;;;;;23.36;98.82;101266.91;5020262;28;20179;-78
2021/08/21 10:32:44;;;;;;;5.30;3.30;;;;;;;23.30;98.88;101269.06;5017903;28;20188;-77
2021/08/21 10:35:13;;;;;;;3.60;2.65;;;;;;;23.31;96.57;101275.41;5017379;28;20184;-77
2021/08/21 10:37:43;;;;;;;3.97;3.00;;;;;;;22.95;98.51;101275.28;5021297;28;20187;-77
2021/08/21 10:40:32;;;;;;;5.25;3.40;;;;;;;23.12;96.93;101280.66;5020457;28;20191;-77
2021/08/21 10:43:05;;;;;;;3.63;3.17;;;;;;;22.79;99.37;101271.44;5035210;28;20637;-77
2021/08/21 10:45:42;;;;;;;3.05;2.67;;;;;;;22.86;99.74;101277.25;5054614;28;20219;-77
2021/08/21 10:48:35;;;;;;;3.67;3.10;;;;;;;22.75;100.00;101274.44;5044557;28;20184;-77
2021/08/21 10:51:04;;;;;;;4.18;3.13;;;;;;;22.82;100.00;101270.78;5044795;28;20708;-76
2021/08/21 10:53:35;;;;;;;5.13;2.72;;;;;;;22.90;100.00;101267.16;5018172;28;20209;-76
2021/08/21 10:56:03;;;;;;;3.25;2.67;;;;;;;23.57;95.20;101266.50;5017343;28;20230;-77
2021/08/21 10:58:29;;;;;;;3.65;2.58;;;;;;;23.60;96.27;101271.38;5066592;28;20190;-76
2021/08/21 11:00:55;;;;;;;8.45;3.60;;;;;;;23.40;94.82;101271.41;5020049;28;20241;-78
2021/08/21 11:03:24;;;;;;;3.28;2.97;;;;;;;23.44;94.91;101277.09;5033649;28;20204;-76
2021/08/21 11:05:54;;;;;;;4.22;3.30;;;;;;;23.29;95.25;101274.94;5034122;28;20252;-76
2021/08/21 11:08:21;;;;;;;3.92;3.13;;;;;;;23.44;93.49;101279.84;5026721;28;20192;-78
2021/08/21 11:10:47;;;;;;;3.28;2.83;;;;;;;23.30;95.92;101271.84;5020046;28;20630;-78
2021/08/21 11:13:49;;;;;;;3.15;2.88;;;;;;;23.49;97.21;101268.56;5053323;28;20229;-76
2021/08/21 11:16:15;;;;;;;4.07;3.30;;;;;;;23.32;100.00;101265.97;5037274;28;20231;-78
2021/08/21 11:18:50;;;;;;;5.15;3.38;;;;;;;23.30;99.70;101266.28;5054956;28;20621;-77
2021/08/21 11:21:35;;;;;;;7.72;3.58;;;;;;;23.42;97.08;101266.31;5054065;28;20229;-77
2021/08/21 11:24:03;;;;;;;4.10;3.00;;;;;;;23.39;98.15;101263.44;5017270;28;20196;-78
2021/08/21 11:26:32;;;;;;;3.85;3.20;;;;;;;23.62;96.10;101255.19;5059137;28;20223;-76
2021/08/21 11:29:10;;;;;;;4.75;3.13;;;;;;;23.52;97.05;101256.78;5052694;28;20741;-77
2021/08/21 11:31:54;;;;;;;3.53;2.90;;;;;;;23.96;96.49;101260.34;5069353;28;20667;-77